Darstellungsparameter: Aktuell verwendete Einstellungen:
Skalierung der Graphiken ... ?
xyx+y,   Skalierungsfaktor:      Skalierung: Modus: x, Faktor: 1
Darstellungszeitraum ... ?
Vom - - bis: - -   Zeitraum: 15.08.2019 - 15.08.2019
Min/Max/Avg-Anzeige ... ?
Zeige MMA aktuell
Zeige MMA Monat
Zeige MMA alles
Zeige --A aktuell
Zeige --A Monat
Zeige --A alles
Keine MMA-Anzeige
MMA:
Average (ber die Originaldaten)
MMA-Basis: 23.02.2003 - 16.08.2019
Quicknavigation für Darstellung... ?
Tage:      1T, 2T, 3T, 5T -1T -2T -3T -5T +1T +2T +3T +5T
Wochen: 1W, 2W, 3W -1W -2W -3W +1W +2W +3W
Monate: 1M, 3M, 6M -1M -3M -6M +1M +3M +6M
Jahre:    1J, 3J, 5J, 10J -1J -3J -5J -10J +1J +3J +5J +10J
Nutze für die Darstellung ... ?
Originaldaten oder Mittelwerte auf ...
Stundenbasis Tagesbasis Wochenbasis
Monatsbasis Jahresbasis      Datenbasis: Original-Daten
Darstellen als:
Statistik (Auto) Statistik J:M      Darstellung:
Zur Graphik,    zurück zur Übersicht aller Sensoren.
 
Tabellarische Datenbersicht: ?
 
Sensor: Nr:Datum:Temp:Feuchte:Taupunkt:
Aussen-T/F 1 15-08-2019 00:00:00 17.4 C 76 % 13.13 C
2 15-08-2019 00:05:00 17.4 C 76 % 13.13 C
3 15-08-2019 00:10:00 17.4 C 77 % 13.33 C
4 15-08-2019 00:15:00 17.4 C 77 % 13.33 C
5 15-08-2019 00:20:00 17.3 C 78 % 13.43 C
6 15-08-2019 00:25:00 17.3 C 77 % 13.23 C
7 15-08-2019 00:30:00 17.3 C 78 % 13.43 C
8 15-08-2019 00:35:00 17.3 C 77 % 13.23 C
9 15-08-2019 00:40:00 17.3 C 75 % 12.83 C
10 15-08-2019 00:45:00 17.3 C 76 % 13.03 C
11 15-08-2019 00:50:00 17.4 C 76 % 13.13 C
12 15-08-2019 00:55:00 17.5 C 76 % 13.23 C
13 15-08-2019 01:00:00 17.5 C 78 % 13.62 C
14 15-08-2019 01:05:00 17.5 C 76 % 13.23 C
15 15-08-2019 01:10:00 17.5 C 76 % 13.23 C
16 15-08-2019 01:15:00 17.5 C 77 % 13.43 C
17 15-08-2019 01:20:00 17.4 C 77 % 13.33 C
18 15-08-2019 01:25:00 17.4 C 77 % 13.33 C
19 15-08-2019 01:30:00 17.3 C 76 % 13.03 C
20 15-08-2019 01:35:00 17.3 C 76 % 13.03 C
21 15-08-2019 01:40:00 17.3 C 77 % 13.23 C
22 15-08-2019 01:45:00 17.3 C 77 % 13.23 C
23 15-08-2019 01:50:00 17.3 C 80 % 13.82 C
24 15-08-2019 01:55:00 17.3 C 83 % 14.39 C
25 15-08-2019 02:00:00 17.2 C 84 % 14.47 C
Sensor: Nr:Datum:Temp:Feuchte:Taupunkt:
Aussen-T/F 26 15-08-2019 02:05:00 16.9 C 85 % 14.36 C
27 15-08-2019 02:10:00 16.7 C 86 % 14.35 C
28 15-08-2019 02:15:00 16.4 C 87 % 14.23 C
29 15-08-2019 02:20:00 16.3 C 88 % 14.31 C
30 15-08-2019 02:25:00 16.1 C 88 % 14.11 C
31 15-08-2019 02:30:00 16 C 89 % 14.19 C
32 15-08-2019 02:35:00 15.9 C 90 % 14.26 C
33 15-08-2019 02:40:00 15.8 C 90 % 14.16 C
34 15-08-2019 02:45:00 15.8 C 91 % 14.33 C
35 15-08-2019 02:50:00 15.7 C 91 % 14.24 C
36 15-08-2019 02:55:00 15.6 C 92 % 14.31 C
37 15-08-2019 03:00:00 15.6 C 92 % 14.31 C
38 15-08-2019 03:05:00 15.5 C 92 % 14.21 C
39 15-08-2019 03:10:00 15.4 C 92 % 14.11 C
40 15-08-2019 03:15:00 15.3 C 92 % 14.01 C
41 15-08-2019 03:20:00 15.3 C 92 % 14.01 C
42 15-08-2019 03:25:00 15.3 C 92 % 14.01 C
43 15-08-2019 03:30:00 15.2 C 92 % 13.91 C
44 15-08-2019 03:35:00 15.2 C 93 % 14.08 C
45 15-08-2019 03:40:00 15.2 C 93 % 14.08 C
46 15-08-2019 03:45:00 15.1 C 93 % 13.98 C
47 15-08-2019 03:50:00 15.1 C 93 % 13.98 C
48 15-08-2019 03:55:00 15.1 C 93 % 13.98 C
49 15-08-2019 04:00:00 15 C 93 % 13.88 C
50 15-08-2019 04:05:00 14.9 C 93 % 13.78 C
Sensor: Nr:Datum:Temp:Feuchte:Taupunkt:
Aussen-T/F 51 15-08-2019 04:10:00 14.9 C 93 % 13.78 C
52 15-08-2019 04:15:00 14.9 C 93 % 13.78 C
53 15-08-2019 04:20:00 14.9 C 94 % 13.94 C
54 15-08-2019 04:25:00 14.9 C 94 % 13.94 C
55 15-08-2019 04:30:00 14.9 C 94 % 13.94 C
56 15-08-2019 04:35:00 14.9 C 94 % 13.94 C
57 15-08-2019 04:40:00 14.9 C 94 % 13.94 C
58 15-08-2019 04:45:00 14.9 C 94 % 13.94 C
59 15-08-2019 04:50:00 14.9 C 94 % 13.94 C
60 15-08-2019 04:55:00 14.9 C 94 % 13.94 C
61 15-08-2019 05:00:00 14.9 C 94 % 13.94 C
62 15-08-2019 05:05:00 14.9 C 94 % 13.94 C
63 15-08-2019 05:10:00 14.9 C 94 % 13.94 C
64 15-08-2019 05:15:00 14.9 C 94 % 13.94 C
65 15-08-2019 05:20:00 14.8 C 94 % 13.84 C
66 15-08-2019 05:25:00 14.8 C 94 % 13.84 C
67 15-08-2019 05:30:00 14.8 C 94 % 13.84 C
68 15-08-2019 05:35:00 14.8 C 94 % 13.84 C
69 15-08-2019 05:40:00 14.8 C 94 % 13.84 C
70 15-08-2019 05:45:00 14.8 C 94 % 13.84 C
71 15-08-2019 05:50:00 14.8 C 95 % 14.01 C
72 15-08-2019 05:55:00 14.9 C 95 % 14.11 C
73 15-08-2019 06:00:00 14.9 C 95 % 14.11 C
74 15-08-2019 06:05:00 14.9 C 95 % 14.11 C
75 15-08-2019 06:10:00 15 C 95 % 14.21 C
Sensor: Nr:Datum:Temp:Feuchte:Taupunkt:
Aussen-T/F 76 15-08-2019 06:15:00 14.9 C 95 % 14.11 C
77 15-08-2019 06:20:00 14.9 C 95 % 14.11 C
78 15-08-2019 06:25:00 14.9 C 95 % 14.11 C
79 15-08-2019 06:30:00 15 C 95 % 14.21 C
80 15-08-2019 06:35:00 15 C 95 % 14.21 C
81 15-08-2019 06:40:00 15 C 95 % 14.21 C
82 15-08-2019 06:45:00 15 C 95 % 14.21 C
83 15-08-2019 06:50:00 15 C 94 % 14.04 C
84 15-08-2019 06:55:00 15.1 C 94 % 14.14 C
85 15-08-2019 07:00:00 15.2 C 94 % 14.24 C
86 15-08-2019 07:05:00 15.2 C 94 % 14.24 C
87 15-08-2019 07:10:00 15.2 C 94 % 14.24 C
88 15-08-2019 07:15:00 15.3 C 94 % 14.34 C
89 15-08-2019 07:20:00 15.3 C 94 % 14.34 C
90 15-08-2019 07:25:00 15.4 C 93 % 14.27 C
91 15-08-2019 07:30:00 15.5 C 93 % 14.37 C
92 15-08-2019 07:35:00 15.6 C 93 % 14.47 C
93 15-08-2019 07:40:00 15.7 C 91 % 14.24 C
94 15-08-2019 07:45:00 16 C 91 % 14.53 C
95 15-08-2019 07:50:00 16.2 C 90 % 14.56 C
96 15-08-2019 07:55:00 16.6 C 87 % 14.43 C
97 15-08-2019 08:00:00 16.9 C 85 % 14.36 C
98 15-08-2019 08:05:00 17.3 C 84 % 14.57 C
99 15-08-2019 08:10:00 17.5 C 84 % 14.77 C
100 15-08-2019 08:15:00 17.6 C 83 % 14.68 C
Sensor: Nr:Datum:Temp:Feuchte:Taupunkt:
Aussen-T/F 101 15-08-2019 08:20:00 17.6 C 84 % 14.87 C
102 15-08-2019 08:25:00 17.6 C 86 % 15.23 C
103 15-08-2019 08:30:00 17.6 C 86 % 15.23 C
104 15-08-2019 08:35:00 17.5 C 84 % 14.77 C
105 15-08-2019 08:40:00 17.7 C 84 % 14.96 C
106 15-08-2019 08:45:00 17.8 C 83 % 14.88 C
107 15-08-2019 08:50:00 17.9 C 82 % 14.78 C
108 15-08-2019 08:55:00 18.1 C 82 % 14.98 C
109 15-08-2019 09:00:00 18.2 C 82 % 15.08 C
110 15-08-2019 09:05:00 18.3 C 81 % 14.98 C
111 15-08-2019 09:10:00 18.3 C 82 % 15.17 C
112 15-08-2019 09:15:00 18.4 C 82 % 15.27 C
113 15-08-2019 09:20:00 18.4 C 81 % 15.08 C
114 15-08-2019 09:25:00 18.5 C 81 % 15.18 C
115 15-08-2019 09:30:00 18.5 C 81 % 15.18 C
116 15-08-2019 09:35:00 18.5 C 82 % 15.37 C
117 15-08-2019 09:40:00 18.6 C 81 % 15.28 C
118 15-08-2019 09:45:00 18.6 C 81 % 15.28 C
119 15-08-2019 09:50:00 18.7 C 82 % 15.57 C
120 15-08-2019 09:55:00 18.8 C 82 % 15.66 C
121 15-08-2019 10:00:00 18.8 C 81 % 15.47 C
122 15-08-2019 10:05:00 18.9 C 82 % 15.76 C
123 15-08-2019 10:10:00 18.9 C 81 % 15.57 C
124 15-08-2019 10:15:00 19 C 81 % 15.67 C
125 15-08-2019 10:20:00 19 C 81 % 15.67 C
Sensor: Nr:Datum:Temp:Feuchte:Taupunkt:
Aussen-T/F 126 15-08-2019 10:25:00 19.1 C 82 % 15.96 C
127 15-08-2019 10:30:00 19.2 C 81 % 15.86 C
128 15-08-2019 10:35:00 19.3 C 81 % 15.96 C
129 15-08-2019 10:40:00 19.3 C 81 % 15.96 C
130 15-08-2019 10:45:00 19.4 C 80 % 15.86 C
131 15-08-2019 10:50:00 19.4 C 81 % 16.06 C
132 15-08-2019 10:55:00 19.4 C 80 % 15.86 C
133 15-08-2019 11:00:00 19.4 C 80 % 15.86 C
134 15-08-2019 11:05:00 19.3 C 81 % 15.96 C
135 15-08-2019 11:10:00 19.3 C 82 % 16.15 C
136 15-08-2019 11:15:00 19.3 C 82 % 16.15 C
137 15-08-2019 11:20:00 19.2 C 82 % 16.05 C
138 15-08-2019 11:25:00 19.2 C 82 % 16.05 C
139 15-08-2019 11:30:00 19.2 C 82 % 16.05 C
140 15-08-2019 11:35:00 19.2 C 82 % 16.05 C
141 15-08-2019 11:40:00 19.3 C 82 % 16.15 C
142 15-08-2019 11:45:00 19.4 C 82 % 16.25 C
143 15-08-2019 11:50:00 19.4 C 81 % 16.06 C
144 15-08-2019 11:55:00 19.2 C 81 % 15.86 C
145 15-08-2019 12:00:00 19.2 C 83 % 16.24 C
146 15-08-2019 12:05:00 19.3 C 82 % 16.15 C
147 15-08-2019 12:10:00 19.5 C 81 % 16.15 C
148 15-08-2019 12:15:00 19.7 C 80 % 16.15 C
149 15-08-2019 12:20:00 19.8 C 79 % 16.05 C
150 15-08-2019 12:25:00 20.1 C 79 % 16.34 C
Sensor: Nr:Datum:Temp:Feuchte:Taupunkt:
Aussen-T/F 151 15-08-2019 12:30:00 20.3 C 79 % 16.54 C
152 15-08-2019 12:35:00 20.4 C 77 % 16.23 C
153 15-08-2019 12:40:00 20.4 C 76 % 16.03 C
154 15-08-2019 12:45:00 20.3 C 77 % 16.14 C
155 15-08-2019 12:50:00 20.1 C 80 % 16.54 C
156 15-08-2019 12:55:00 19.8 C 83 % 16.83 C
157 15-08-2019 13:00:00 19.7 C 85 % 17.11 C
158 15-08-2019 13:05:00 19.4 C 85 % 16.81 C
159 15-08-2019 13:10:00 19.1 C 85 % 16.52 C
160 15-08-2019 13:15:00 18.9 C 86 % 16.51 C
161 15-08-2019 13:20:00 18.7 C 88 % 16.67 C
162 15-08-2019 13:25:00 18.7 C 90 % 17.03 C
163 15-08-2019 13:30:00 18.8 C 90 % 17.12 C
164 15-08-2019 13:35:00 18.8 C 90 % 17.12 C
165 15-08-2019 13:40:00 18.7 C 91 % 17.2 C
166 15-08-2019 13:45:00 18.7 C 91 % 17.2 C
167 15-08-2019 13:50:00 18.8 C 92 % 17.47 C
168 15-08-2019 13:55:00 19 C 91 % 17.5 C
169 15-08-2019 14:00:00 19.2 C 90 % 17.52 C
170 15-08-2019 14:05:00 19.3 C 90 % 17.62 C
171 15-08-2019 14:10:00 19.4 C 89 % 17.54 C
172 15-08-2019 14:15:00 19.5 C 87 % 17.28 C
173 15-08-2019 14:20:00 19.5 C 86 % 17.1 C
174 15-08-2019 14:25:00 19.6 C 87 % 17.38 C
175 15-08-2019 14:30:00 19.7 C 86 % 17.29 C
Sensor: Nr:Datum:Temp:Feuchte:Taupunkt:
Aussen-T/F 176 15-08-2019 14:35:00 19.6 C 85 % 17.01 C
177 15-08-2019 14:40:00 19.8 C 85 % 17.21 C
178 15-08-2019 14:45:00 20.1 C 84 % 17.31 C
179 15-08-2019 14:50:00 20.4 C 82 % 17.22 C
180 15-08-2019 14:55:00 20.7 C 81 % 17.32 C
181 15-08-2019 15:00:00 20.9 C 81 % 17.52 C
182 15-08-2019 15:05:00 21.2 C 79 % 17.41 C
183 15-08-2019 15:10:00 21.5 C 77 % 17.3 C
184 15-08-2019 15:15:00 21.7 C 76 % 17.28 C
185 15-08-2019 15:20:00 21.8 C 76 % 17.38 C
186 15-08-2019 15:25:00 21.5 C 77 % 17.3 C
187 15-08-2019 15:30:00 21 C 78 % 17.02 C
188 15-08-2019 15:35:00 20.6 C 81 % 17.22 C
189 15-08-2019 15:40:00 20.2 C 85 % 17.6 C
190 15-08-2019 15:45:00 19.9 C 87 % 17.67 C
191 15-08-2019 15:50:00 19.6 C 89 % 17.74 C
192 15-08-2019 15:55:00 19.6 C 90 % 17.91 C
193 15-08-2019 16:00:00 19.3 C 90 % 17.62 C
194 15-08-2019 16:05:00 19.4 C 92 % 18.07 C
195 15-08-2019 16:10:00 19.4 C 92 % 18.07 C
196 15-08-2019 16:15:00 19.7 C 92 % 18.36 C
197 15-08-2019 16:20:00 19.8 C 91 % 18.29 C
198 15-08-2019 16:25:00 19.9 C 90 % 18.21 C
199 15-08-2019 16:30:00 19.8 C 88 % 17.75 C
200 15-08-2019 16:35:00 19.7 C 88 % 17.66 C
Sensor: Nr:Datum:Temp:Feuchte:Taupunkt:
Aussen-T/F 201 15-08-2019 16:40:00 19.6 C 89 % 17.74 C
202 15-08-2019 16:45:00 19 C 86 % 16.6 C
203 15-08-2019 16:50:00 18.4 C 88 % 16.38 C
204 15-08-2019 16:55:00 17.9 C 89 % 16.06 C
205 15-08-2019 17:00:00 17.6 C 91 % 16.11 C
206 15-08-2019 17:05:00 17.6 C 92 % 16.28 C
207 15-08-2019 17:10:00 17.5 C 92 % 16.19 C
208 15-08-2019 17:15:00 17.3 C 92 % 15.99 C
209 15-08-2019 17:20:00 17.3 C 93 % 16.16 C
210 15-08-2019 17:25:00 17.2 C 93 % 16.06 C
211 15-08-2019 17:30:00 17.3 C 93 % 16.16 C
212 15-08-2019 17:35:00 17.3 C 94 % 16.33 C
213 15-08-2019 17:40:00 17.2 C 93 % 16.06 C
214 15-08-2019 17:45:00 17.2 C 94 % 16.23 C
215 15-08-2019 17:50:00 17.1 C 94 % 16.13 C
216 15-08-2019 17:55:00 17 C 94 % 16.03 C
217 15-08-2019 18:00:00 17.1 C 94 % 16.13 C
218 15-08-2019 18:05:00 17.1 C 94 % 16.13 C
219 15-08-2019 18:10:00 17.1 C 94 % 16.13 C
220 15-08-2019 18:15:00 17.1 C 94 % 16.13 C
221 15-08-2019 18:20:00 17 C 94 % 16.03 C
222 15-08-2019 18:25:00 16.9 C 94 % 15.93 C
223 15-08-2019 18:30:00 16.9 C 94 % 15.93 C
224 15-08-2019 18:35:00 16.9 C 94 % 15.93 C
225 15-08-2019 18:40:00 16.9 C 94 % 15.93 C
Sensor: Nr:Datum:Temp:Feuchte:Taupunkt:
Aussen-T/F 226 15-08-2019 18:45:00 16.9 C 95 % 16.09 C
227 15-08-2019 18:50:00 16.9 C 95 % 16.09 C
228 15-08-2019 18:55:00 16.9 C 94 % 15.93 C
229 15-08-2019 19:00:00 16.9 C 95 % 16.09 C
230 15-08-2019 19:05:00 17.1 C 95 % 16.29 C
231 15-08-2019 19:10:00 17.3 C 95 % 16.49 C
232 15-08-2019 19:15:00 17.5 C 96 % 16.85 C
233 15-08-2019 19:20:00 17.5 C 95 % 16.69 C
234 15-08-2019 19:25:00 17.5 C 95 % 16.69 C
235 15-08-2019 19:30:00 17.4 C 94 % 16.42 C
236 15-08-2019 19:35:00 17.3 C 94 % 16.33 C
237 15-08-2019 19:40:00 17.2 C 94 % 16.23 C
238 15-08-2019 19:45:00 17.1 C 94 % 16.13 C
239 15-08-2019 19:50:00 17.1 C 94 % 16.13 C
240 15-08-2019 19:55:00 17.1 C 94 % 16.13 C
241 15-08-2019 20:00:00 17.2 C 95 % 16.39 C
242 15-08-2019 20:05:00 17.2 C 95 % 16.39 C
243 15-08-2019 20:10:00 17.3 C 95 % 16.49 C
244 15-08-2019 20:15:00 17.3 C 95 % 16.49 C
245 15-08-2019 20:20:00 17.3 C 95 % 16.49 C
246 15-08-2019 20:25:00 17.2 C 95 % 16.39 C
247 15-08-2019 20:30:00 17.1 C 95 % 16.29 C
248 15-08-2019 20:35:00 17.1 C 94 % 16.13 C
249 15-08-2019 20:40:00 17 C 94 % 16.03 C
250 15-08-2019 20:45:00 16.9 C 94 % 15.93 C
Sensor: Nr:Datum:Temp:Feuchte:Taupunkt:
Aussen-T/F 251 15-08-2019 20:50:00 16.8 C 94 % 15.83 C
252 15-08-2019 20:55:00 16.7 C 94 % 15.73 C
253 15-08-2019 21:00:00 16.6 C 94 % 15.63 C
254 15-08-2019 21:05:00 16.5 C 94 % 15.53 C
255 15-08-2019 21:10:00 16.4 C 95 % 15.6 C
256 15-08-2019 21:15:00 16.4 C 95 % 15.6 C
257 15-08-2019 21:20:00 16.4 C 95 % 15.6 C
258 15-08-2019 21:25:00 16.4 C 95 % 15.6 C
259 15-08-2019 21:30:00 16.4 C 95 % 15.6 C
260 15-08-2019 21:35:00 16.4 C 95 % 15.6 C
261 15-08-2019 21:40:00 16.4 C 95 % 15.6 C
262 15-08-2019 21:45:00 16.4 C 95 % 15.6 C
263 15-08-2019 21:50:00 16.3 C 95 % 15.5 C
264 15-08-2019 21:55:00 16.3 C 94 % 15.33 C
265 15-08-2019 22:00:00 16.2 C 94 % 15.23 C
266 15-08-2019 22:05:00 16.2 C 94 % 15.23 C
267 15-08-2019 22:10:00 16.2 C 95 % 15.4 C
268 15-08-2019 22:15:00 16.1 C 94 % 15.13 C
269 15-08-2019 22:20:00 16.1 C 95 % 15.3 C
270 15-08-2019 22:25:00 15.9 C 94 % 14.94 C
271 15-08-2019 22:30:00 15.9 C 94 % 14.94 C
272 15-08-2019 22:35:00 15.8 C 95 % 15 C
273 15-08-2019 22:40:00 15.8 C 95 % 15 C
274 15-08-2019 22:45:00 15.7 C 95 % 14.9 C
275 15-08-2019 22:50:00 15.7 C 95 % 14.9 C
Sensor: Nr:Datum:Temp:Feuchte:Taupunkt:
Aussen-T/F 276 15-08-2019 22:55:00 15.6 C 95 % 14.8 C
277 15-08-2019 23:00:00 15.6 C 95 % 14.8 C
278 15-08-2019 23:05:00 15.6 C 95 % 14.8 C
279 15-08-2019 23:10:00 15.6 C 95 % 14.8 C
280 15-08-2019 23:15:00 15.6 C 95 % 14.8 C
281 15-08-2019 23:20:00 15.6 C 95 % 14.8 C
282 15-08-2019 23:25:00 15.6 C 95 % 14.8 C
283 15-08-2019 23:30:00 15.6 C 95 % 14.8 C
284 15-08-2019 23:35:00 15.5 C 95 % 14.7 C
285 15-08-2019 23:40:00 15.4 C 95 % 14.6 C
286 15-08-2019 23:45:00 15.5 C 95 % 14.7 C
287 15-08-2019 23:50:00 15.5 C 95 % 14.7 C
288 15-08-2019 23:55:00 15.4 C 95 % 14.6 C

Legende:
   Min
   Max


Maximal/Minimal-Werte vom 23.02.2003 - 16.08.2019

Sensor Min Max Avg
Temp
(Aussen-T/F)
-16.4 °C
20-12-2009  01:30:01
40.4 °C
25-07-2019  16:20:00
11.22 °C
Feuchte
(Aussen-T/F)
18 %
17-07-2015  15:55:00
100 %
07-10-2012  03:05:00
76.99 %

Die Daten stammen von einer Davis Vantage Pro 2 Wetter-Station und werden unter Linux mit der Software wview2wettercgi und aufbereitet. Alle Angaben erfolgen ohne Gewähr für ihre Vollständigkeit oder Richtigkeit.
Kontakt: Rainer Krienke krienke@uni-koblenz.de . Meine Webseiten an der Uni Koblenz oder privat.
Version: $Revision: 0.78 $